Portada
METAR-TAF:

METAR-TAF

Aeropuertos :

Aeropuerto Internacional Lynden Pindling

Nasáu, Bahamas

latitud: 25-03N, longitud: 077-28W, altitud: 3 m

Observación

El informe se hizo hace 19 minutos, a las 06:00 UTC
Viento 4 kt del este
Temperatura 20°C
Humedad 73%
Presión 1019 hPa
Visibilidad 10 km o más
Escasas nubes a una altura de 4000 ft

METAR: MYNN 160600Z 09004KT 9999 FEW040 20/15 A3010

Hora: 01:19 (06:19 UTC)

Pronóstico

El informe se hizo hace 1 hora y 49 minutos, a las 04:30 UTC
Pronóstico válido del 16 a las 06 UTC al 17 a las 06 UTC
Viento 10 kt del norte-noreste
Visibilidad 10 km o más
Cielo nuboso a una altura de 4000 ft

TAF: MYNN 160430Z 1606/1706 03010KT 9999 BKN040

Observaciones y pronósticos meteorológicos de más de 4000 aeropuertos (mensajes METAR y TAF).

Los puntos amarillos y rojos representan las estaciones disponibles.

Ponga el ratón en el punto deseado para ver el nombre de la estación.

Haga clic para ver las observaciones y los pronósticos meteorológicos.

Para cambiar el mapa : haga clic en los botones verdes con una cruz de color negro para hacer un zoom, en el botón verde con un guión para alejar o en las flechas verdes para mapas adyacentes.


METAR-TAF: